Terminal Aerodrome Forecast
Issued by NWS

Home | Current Version | Previous Version | Text Only | Print | Product List | Glossary On
Versions: 1 2 3 4 5 6 7 8 9 10 11 12 13 14 15 16 17 18 19 20 21 22 23 24
804
FTUS44 KOUN 241729
TAFWWR
TAF
KWWR 241729Z 2418/2518 21018G25KT P6SM BKN040 BKN250
     FM242300 18010KT P6SM BKN040 BKN100
      TEMPO 2423/2503 5SM TSRA BKN030CB
     FM250600 24006KT P6SM BKN250
      AMD NOT SKED=

USA.gov is the U.S. government's official web portal to all federal, state and local government web resources and services.